sensor_id;sensor_type;location;lat;lon;timestamp;P1;durP1;ratioP1;P2;durP2;ratioP2
26098;SDS011;13860;52.370;6.764;2024-01-30T00:01:49;18.65;;;8.73;;
26098;SDS011;13860;52.370;6.764;2024-01-30T00:04:55;17.63;;;9.48;;
26098;SDS011;13860;52.370;6.764;2024-01-30T00:08:02;19.60;;;8.68;;
26098;SDS011;13860;52.370;6.764;2024-01-30T00:11:09;15.88;;;9.23;;
26098;SDS011;13860;52.370;6.764;2024-01-30T00:14:16;13.27;;;8.05;;
26098;SDS011;13860;52.370;6.764;2024-01-30T00:17:24;19.35;;;8.65;;
26098;SDS011;13860;52.370;6.764;2024-01-30T00:20:32;13.68;;;7.80;;
26098;SDS011;13860;52.370;6.764;2024-01-30T00:23:37;17.23;;;8.43;;
26098;SDS011;13860;52.370;6.764;2024-01-30T00:26:45;25.08;;;8.15;;
26098;SDS011;13860;52.370;6.764;2024-01-30T00:29:50;19.58;;;8.35;;
26098;SDS011;13860;52.370;6.764;2024-01-30T00:33:01;17.67;;;8.13;;
26098;SDS011;13860;52.370;6.764;2024-01-30T00:36:07;21.42;;;8.60;;
26098;SDS011;13860;52.370;6.764;2024-01-30T00:39:15;14.77;;;7.78;;
26098;SDS011;13860;52.370;6.764;2024-01-30T00:42:21;14.98;;;8.32;;
26098;SDS011;13860;52.370;6.764;2024-01-30T00:45:30;13.85;;;8.40;;
26098;SDS011;13860;52.370;6.764;2024-01-30T00:48:38;20.63;;;8.82;;
26098;SDS011;13860;52.370;6.764;2024-01-30T00:51:46;16.63;;;8.60;;
26098;SDS011;13860;52.370;6.764;2024-01-30T00:54:51;15.55;;;8.18;;
26098;SDS011;13860;52.370;6.764;2024-01-30T00:57:59;21.77;;;8.15;;
26098;SDS011;13860;52.370;6.764;2024-01-30T01:01:04;15.68;;;8.23;;
26098;SDS011;13860;52.370;6.764;2024-01-30T01:04:16;19.23;;;7.82;;
26098;SDS011;13860;52.370;6.764;2024-01-30T01:07:23;13.50;;;8.52;;
26098;SDS011;13860;52.370;6.764;2024-01-30T01:10:30;21.80;;;8.95;;
26098;SDS011;13860;52.370;6.764;2024-01-30T01:13:36;17.20;;;8.50;;
26098;SDS011;13860;52.370;6.764;2024-01-30T01:16:44;15.52;;;9.05;;
26098;SDS011;13860;52.370;6.764;2024-01-30T01:19:52;15.38;;;8.38;;
26098;SDS011;13860;52.370;6.764;2024-01-30T01:22:59;16.88;;;8.15;;
26098;SDS011;13860;52.370;6.764;2024-01-30T01:26:05;18.55;;;8.82;;
26098;SDS011;13860;52.370;6.764;2024-01-30T01:29:14;13.43;;;8.10;;
26098;SDS011;13860;52.370;6.764;2024-01-30T01:32:19;18.98;;;8.75;;
26098;SDS011;13860;52.370;6.764;2024-01-30T01:35:30;16.65;;;7.35;;
26098;SDS011;13860;52.370;6.764;2024-01-30T01:38:36;17.23;;;8.48;;
26098;SDS011;13860;52.370;6.764;2024-01-30T01:41:43;16.38;;;8.07;;
26098;SDS011;13860;52.370;6.764;2024-01-30T01:44:49;17.17;;;8.13;;
26098;SDS011;13860;52.370;6.764;2024-01-30T01:47:56;21.55;;;8.30;;
26098;SDS011;13860;52.370;6.764;2024-01-30T01:51:07;18.92;;;8.68;;
26098;SDS011;13860;52.370;6.764;2024-01-30T01:54:16;14.98;;;8.35;;
26098;SDS011;13860;52.370;6.764;2024-01-30T01:57:23;15.68;;;8.35;;
26098;SDS011;13860;52.370;6.764;2024-01-30T02:00:30;17.83;;;9.52;;
26098;SDS011;13860;52.370;6.764;2024-01-30T02:03:36;22.23;;;8.95;;
26098;SDS011;13860;52.370;6.764;2024-01-30T02:06:47;19.40;;;8.43;;
26098;SDS011;13860;52.370;6.764;2024-01-30T02:09:53;15.50;;;7.50;;
26098;SDS011;13860;52.370;6.764;2024-01-30T02:13:01;21.77;;;8.45;;
26098;SDS011;13860;52.370;6.764;2024-01-30T02:16:07;14.57;;;8.18;;
26098;SDS011;13860;52.370;6.764;2024-01-30T02:19:15;21.27;;;9.43;;
26098;SDS011;13860;52.370;6.764;2024-01-30T02:22:24;16.00;;;7.85;;
26098;SDS011;13860;52.370;6.764;2024-01-30T02:25:33;25.30;;;8.50;;
26098;SDS011;13860;52.370;6.764;2024-01-30T02:28:46;14.32;;;8.00;;
26098;SDS011;13860;52.370;6.764;2024-01-30T02:31:54;14.40;;;7.75;;
26098;SDS011;13860;52.370;6.764;2024-01-30T02:34:59;13.40;;;8.00;;
26098;SDS011;13860;52.370;6.764;2024-01-30T02:38:10;19.35;;;8.82;;
26098;SDS011;13860;52.370;6.764;2024-01-30T02:41:15;16.13;;;8.43;;
26098;SDS011;13860;52.370;6.764;2024-01-30T02:44:23;18.75;;;8.73;;
26098;SDS011;13860;52.370;6.764;2024-01-30T02:47:28;19.25;;;8.98;;
26098;SDS011;13860;52.370;6.764;2024-01-30T02:50:36;19.13;;;9.05;;
26098;SDS011;13860;52.370;6.764;2024-01-30T02:53:44;17.73;;;8.77;;
26098;SDS011;13860;52.370;6.764;2024-01-30T02:56:51;18.23;;;8.68;;
26098;SDS011;13860;52.370;6.764;2024-01-30T02:59:57;20.42;;;8.13;;
26098;SDS011;13860;52.370;6.764;2024-01-30T03:03:05;19.27;;;8.95;;
26098;SDS011;13860;52.370;6.764;2024-01-30T03:06:10;16.75;;;9.45;;
26098;SDS011;13860;52.370;6.764;2024-01-30T03:09:22;18.80;;;9.10;;
26098;SDS011;13860;52.370;6.764;2024-01-30T03:12:27;16.95;;;8.52;;
26098;SDS011;13860;52.370;6.764;2024-01-30T03:15:35;19.13;;;9.52;;
26098;SDS011;13860;52.370;6.764;2024-01-30T03:18:41;15.10;;;8.63;;
26098;SDS011;13860;52.370;6.764;2024-01-30T03:21:48;21.65;;;9.43;;
26098;SDS011;13860;52.370;6.764;2024-01-30T03:24:57;16.80;;;8.60;;
26098;SDS011;13860;52.370;6.764;2024-01-30T03:28:05;21.38;;;8.30;;
26098;SDS011;13860;52.370;6.764;2024-01-30T03:31:12;14.95;;;8.45;;
26098;SDS011;13860;52.370;6.764;2024-01-30T03:34:21;21.40;;;9.38;;
26098;SDS011;13860;52.370;6.764;2024-01-30T03:37:26;17.40;;;8.10;;
26098;SDS011;13860;52.370;6.764;2024-01-30T03:40:36;17.52;;;8.88;;
26098;SDS011;13860;52.370;6.764;2024-01-30T03:43:42;18.80;;;9.05;;
26098;SDS011;13860;52.370;6.764;2024-01-30T03:46:50;15.80;;;8.90;;
26098;SDS011;13860;52.370;6.764;2024-01-30T03:49:55;21.17;;;8.73;;
26098;SDS011;13860;52.370;6.764;2024-01-30T03:53:03;17.23;;;9.02;;
26098;SDS011;13860;52.370;6.764;2024-01-30T03:56:11;18.25;;;8.75;;
26098;SDS011;13860;52.370;6.764;2024-01-30T03:59:19;18.98;;;8.77;;
26098;SDS011;13860;52.370;6.764;2024-01-30T04:02:26;17.10;;;9.00;;
26098;SDS011;13860;52.370;6.764;2024-01-30T04:05:34;24.58;;;9.75;;
26098;SDS011;13860;52.370;6.764;2024-01-30T04:08:39;20.60;;;9.32;;
26098;SDS011;13860;52.370;6.764;2024-01-30T04:11:49;25.67;;;10.82;;
26098;SDS011;13860;52.370;6.764;2024-01-30T04:14:55;19.10;;;8.98;;
26098;SDS011;13860;52.370;6.764;2024-01-30T04:18:02;19.98;;;9.75;;
26098;SDS011;13860;52.370;6.764;2024-01-30T04:21:08;17.80;;;9.90;;
26098;SDS011;13860;52.370;6.764;2024-01-30T04:24:16;20.20;;;9.23;;
26098;SDS011;13860;52.370;6.764;2024-01-30T04:27:24;17.98;;;9.00;;
26098;SDS011;13860;52.370;6.764;2024-01-30T04:30:31;19.35;;;9.90;;
26098;SDS011;13860;52.370;6.764;2024-01-30T04:33:37;23.98;;;9.98;;
26098;SDS011;13860;52.370;6.764;2024-01-30T04:36:45;25.90;;;9.90;;
26098;SDS011;13860;52.370;6.764;2024-01-30T04:39:51;21.67;;;9.85;;
26098;SDS011;13860;52.370;6.764;2024-01-30T04:43:01;25.60;;;10.10;;
26098;SDS011;13860;52.370;6.764;2024-01-30T04:46:07;19.67;;;10.00;;
26098;SDS011;13860;52.370;6.764;2024-01-30T04:49:14;15.25;;;8.70;;
26098;SDS011;13860;52.370;6.764;2024-01-30T04:52:20;18.48;;;9.25;;
26098;SDS011;13860;52.370;6.764;2024-01-30T04:55:28;18.58;;;9.32;;
26098;SDS011;13860;52.370;6.764;2024-01-30T04:58:36;20.27;;;9.15;;
26098;SDS011;13860;52.370;6.764;2024-01-30T05:01:43;18.95;;;9.57;;
26098;SDS011;13860;52.370;6.764;2024-01-30T05:04:49;20.05;;;10.10;;
26098;SDS011;13860;52.370;6.764;2024-01-30T05:07:56;19.98;;;9.55;;
26098;SDS011;13860;52.370;6.764;2024-01-30T05:11:02;21.88;;;9.63;;
26098;SDS011;13860;52.370;6.764;2024-01-30T05:14:19;27.90;;;10.73;;
26098;SDS011;13860;52.370;6.764;2024-01-30T05:17:24;18.05;;;9.27;;
26098;SDS011;13860;52.370;6.764;2024-01-30T05:20:31;13.95;;;8.98;;
26098;SDS011;13860;52.370;6.764;2024-01-30T05:23:37;20.45;;;10.57;;
26098;SDS011;13860;52.370;6.764;2024-01-30T05:26:45;22.00;;;10.43;;
26098;SDS011;13860;52.370;6.764;2024-01-30T05:29:55;22.10;;;10.38;;
26098;SDS011;13860;52.370;6.764;2024-01-30T05:33:03;19.88;;;9.75;;
26098;SDS011;13860;52.370;6.764;2024-01-30T05:36:11;15.55;;;9.85;;
26098;SDS011;13860;52.370;6.764;2024-01-30T05:39:19;18.63;;;9.20;;
26098;SDS011;13860;52.370;6.764;2024-01-30T05:42:24;18.52;;;9.82;;
26098;SDS011;13860;52.370;6.764;2024-01-30T05:45:35;18.95;;;9.02;;
26098;SDS011;13860;52.370;6.764;2024-01-30T05:48:40;21.05;;;10.00;;
26098;SDS011;13860;52.370;6.764;2024-01-30T05:51:48;20.88;;;10.60;;
26098;SDS011;13860;52.370;6.764;2024-01-30T05:54:54;20.05;;;9.80;;
26098;SDS011;13860;52.370;6.764;2024-01-30T05:58:01;19.90;;;10.18;;
26098;SDS011;13860;52.370;6.764;2024-01-30T06:01:10;26.00;;;9.90;;
26098;SDS011;13860;52.370;6.764;2024-01-30T06:04:17;20.10;;;10.23;;
26098;SDS011;13860;52.370;6.764;2024-01-30T06:07:23;22.63;;;9.07;;
26098;SDS011;13860;52.370;6.764;2024-01-30T06:10:32;19.95;;;9.93;;
26098;SDS011;13860;52.370;6.764;2024-01-30T06:13:37;16.25;;;8.95;;
26098;SDS011;13860;52.370;6.764;2024-01-30T06:16:47;20.30;;;9.85;;
26098;SDS011;13860;52.370;6.764;2024-01-30T06:19:53;20.65;;;9.80;;
26098;SDS011;13860;52.370;6.764;2024-01-30T06:23:00;20.35;;;9.85;;
26098;SDS011;13860;52.370;6.764;2024-01-30T06:26:06;19.50;;;8.80;;
26098;SDS011;13860;52.370;6.764;2024-01-30T06:29:14;21.63;;;10.27;;
26098;SDS011;13860;52.370;6.764;2024-01-30T06:32:23;21.58;;;9.82;;
26098;SDS011;13860;52.370;6.764;2024-01-30T06:35:31;17.25;;;9.13;;
26098;SDS011;13860;52.370;6.764;2024-01-30T06:38:38;22.52;;;10.32;;
26098;SDS011;13860;52.370;6.764;2024-01-30T06:41:45;17.08;;;9.38;;
26098;SDS011;13860;52.370;6.764;2024-01-30T06:44:51;17.88;;;9.80;;
26098;SDS011;13860;52.370;6.764;2024-01-30T06:48:01;23.95;;;9.98;;
26098;SDS011;13860;52.370;6.764;2024-01-30T06:51:07;14.63;;;9.48;;
26098;SDS011;13860;52.370;6.764;2024-01-30T06:54:18;16.45;;;9.10;;
26098;SDS011;13860;52.370;6.764;2024-01-30T06:57:23;17.98;;;9.60;;
26098;SDS011;13860;52.370;6.764;2024-01-30T07:00:32;22.65;;;10.40;;
26098;SDS011;13860;52.370;6.764;2024-01-30T07:03:40;17.92;;;9.18;;
26098;SDS011;13860;52.370;6.764;2024-01-30T07:06:48;21.80;;;10.43;;
26098;SDS011;13860;52.370;6.764;2024-01-30T07:09:55;19.67;;;10.15;;
26098;SDS011;13860;52.370;6.764;2024-01-30T07:13:03;17.30;;;9.27;;
26098;SDS011;13860;52.370;6.764;2024-01-30T07:16:10;18.20;;;9.40;;
26098;SDS011;13860;52.370;6.764;2024-01-30T07:19:20;16.20;;;8.77;;
26098;SDS011;13860;52.370;6.764;2024-01-30T07:22:26;21.35;;;10.35;;
26098;SDS011;13860;52.370;6.764;2024-01-30T07:25:34;16.20;;;9.38;;
26098;SDS011;13860;52.370;6.764;2024-01-30T07:28:39;18.33;;;9.70;;
26098;SDS011;13860;52.370;6.764;2024-01-30T07:31:48;22.33;;;9.65;;
26098;SDS011;13860;52.370;6.764;2024-01-30T07:34:56;17.38;;;9.25;;
26098;SDS011;13860;52.370;6.764;2024-01-30T07:38:11;17.52;;;9.55;;
26098;SDS011;13860;52.370;6.764;2024-01-30T07:41:17;16.67;;;9.05;;
26098;SDS011;13860;52.370;6.764;2024-01-30T07:44:24;21.35;;;10.52;;
26098;SDS011;13860;52.370;6.764;2024-01-30T07:47:30;17.85;;;9.15;;
26098;SDS011;13860;52.370;6.764;2024-01-30T07:50:40;21.08;;;10.40;;
26098;SDS011;13860;52.370;6.764;2024-01-30T07:53:52;17.42;;;8.85;;
26098;SDS011;13860;52.370;6.764;2024-01-30T07:57:02;17.02;;;8.60;;
26098;SDS011;13860;52.370;6.764;2024-01-30T08:00:08;16.08;;;8.88;;
26098;SDS011;13860;52.370;6.764;2024-01-30T08:03:16;17.65;;;8.88;;
26098;SDS011;13860;52.370;6.764;2024-01-30T08:06:24;20.15;;;10.25;;
26098;SDS011;13860;52.370;6.764;2024-01-30T08:09:32;22.40;;;9.00;;
26098;SDS011;13860;52.370;6.764;2024-01-30T08:12:38;16.20;;;8.07;;
26098;SDS011;13860;52.370;6.764;2024-01-30T08:15:45;17.13;;;8.77;;
26098;SDS011;13860;52.370;6.764;2024-01-30T08:18:52;17.50;;;7.82;;
26098;SDS011;13860;52.370;6.764;2024-01-30T08:22:04;16.80;;;8.85;;
26098;SDS011;13860;52.370;6.764;2024-01-30T08:25:10;13.65;;;7.53;;
26098;SDS011;13860;52.370;6.764;2024-01-30T08:28:18;13.38;;;7.90;;
26098;SDS011;13860;52.370;6.764;2024-01-30T08:31:24;15.23;;;8.05;;
26098;SDS011;13860;52.370;6.764;2024-01-30T08:34:32;14.48;;;7.28;;
26098;SDS011;13860;52.370;6.764;2024-01-30T08:37:41;11.88;;;7.22;;
26098;SDS011;13860;52.370;6.764;2024-01-30T08:40:48;14.27;;;7.95;;
26098;SDS011;13860;52.370;6.764;2024-01-30T08:43:54;17.45;;;8.88;;
26098;SDS011;13860;52.370;6.764;2024-01-30T08:47:01;15.90;;;7.70;;
26098;SDS011;13860;52.370;6.764;2024-01-30T08:50:08;14.07;;;7.53;;
26098;SDS011;13860;52.370;6.764;2024-01-30T08:53:18;12.52;;;7.18;;
26098;SDS011;13860;52.370;6.764;2024-01-30T08:56:24;11.90;;;6.53;;
26098;SDS011;13860;52.370;6.764;2024-01-30T08:59:31;14.05;;;6.85;;
26098;SDS011;13860;52.370;6.764;2024-01-30T09:02:37;16.42;;;7.05;;
26098;SDS011;13860;52.370;6.764;2024-01-30T09:05:45;14.95;;;7.63;;
26098;SDS011;13860;52.370;6.764;2024-01-30T09:08:53;20.05;;;6.65;;
26098;SDS011;13860;52.370;6.764;2024-01-30T09:12:02;14.07;;;7.35;;
26098;SDS011;13860;52.370;6.764;2024-01-30T09:15:10;13.85;;;7.20;;
26098;SDS011;13860;52.370;6.764;2024-01-30T09:18:18;12.52;;;6.32;;
26098;SDS011;13860;52.370;6.764;2024-01-30T09:21:24;13.20;;;6.57;;
26098;SDS011;13860;52.370;6.764;2024-01-30T09:24:34;11.98;;;6.75;;
26098;SDS011;13860;52.370;6.764;2024-01-30T09:27:40;14.45;;;7.50;;
26098;SDS011;13860;52.370;6.764;2024-01-30T09:30:47;12.50;;;6.85;;
26098;SDS011;13860;52.370;6.764;2024-01-30T09:33:53;11.98;;;6.50;;
26098;SDS011;13860;52.370;6.764;2024-01-30T09:37:00;14.25;;;6.75;;
26098;SDS011;13860;52.370;6.764;2024-01-30T09:40:09;12.45;;;7.07;;
26098;SDS011;13860;52.370;6.764;2024-01-30T09:43:17;14.02;;;7.22;;
26098;SDS011;13860;52.370;6.764;2024-01-30T09:46:28;12.68;;;7.05;;
26098;SDS011;13860;52.370;6.764;2024-01-30T09:49:38;17.15;;;7.03;;
26098;SDS011;13860;52.370;6.764;2024-01-30T09:52:47;18.27;;;6.97;;
26098;SDS011;13860;52.370;6.764;2024-01-30T09:55:57;13.98;;;6.40;;
26098;SDS011;13860;52.370;6.764;2024-01-30T09:59:03;13.77;;;6.82;;
26098;SDS011;13860;52.370;6.764;2024-01-30T10:02:10;13.05;;;7.28;;
26098;SDS011;13860;52.370;6.764;2024-01-30T10:05:16;17.98;;;7.57;;
26098;SDS011;13860;52.370;6.764;2024-01-30T10:08:26;17.25;;;7.38;;
26098;SDS011;13860;52.370;6.764;2024-01-30T10:11:34;11.90;;;6.35;;
26098;SDS011;13860;52.370;6.764;2024-01-30T10:14:43;15.70;;;7.30;;
26098;SDS011;13860;52.370;6.764;2024-01-30T10:17:49;13.98;;;6.45;;
26098;SDS011;13860;52.370;6.764;2024-01-30T10:20:56;13.68;;;6.65;;
26098;SDS011;13860;52.370;6.764;2024-01-30T10:24:02;18.77;;;7.43;;
26098;SDS011;13860;52.370;6.764;2024-01-30T10:27:13;12.43;;;6.97;;
26098;SDS011;13860;52.370;6.764;2024-01-30T10:30:18;13.32;;;7.22;;
26098;SDS011;13860;52.370;6.764;2024-01-30T10:33:26;12.52;;;6.80;;
26098;SDS011;13860;52.370;6.764;2024-01-30T10:36:32;17.38;;;7.53;;
26098;SDS011;13860;52.370;6.764;2024-01-30T10:39:47;11.43;;;6.38;;
26098;SDS011;13860;52.370;6.764;2024-01-30T10:42:55;17.30;;;7.53;;
26098;SDS011;13860;52.370;6.764;2024-01-30T10:46:06;14.05;;;7.28;;
26098;SDS011;13860;52.370;6.764;2024-01-30T10:49:16;10.73;;;6.20;;
26098;SDS011;13860;52.370;6.764;2024-01-30T10:52:25;12.57;;;6.82;;
26098;SDS011;13860;52.370;6.764;2024-01-30T10:55:31;15.13;;;7.00;;
26098;SDS011;13860;52.370;6.764;2024-01-30T10:58:44;13.27;;;6.75;;
26098;SDS011;13860;52.370;6.764;2024-01-30T11:01:49;14.80;;;6.80;;
26098;SDS011;13860;52.370;6.764;2024-01-30T11:04:58;14.20;;;7.50;;
26098;SDS011;13860;52.370;6.764;2024-01-30T11:08:11;18.02;;;7.55;;
26098;SDS011;13860;52.370;6.764;2024-01-30T11:11:19;13.98;;;6.90;;
26098;SDS011;13860;52.370;6.764;2024-01-30T11:14:29;22.13;;;7.95;;
26098;SDS011;13860;52.370;6.764;2024-01-30T11:17:43;16.15;;;7.68;;
26098;SDS011;13860;52.370;6.764;2024-01-30T11:20:50;15.15;;;7.15;;
26098;SDS011;13860;52.370;6.764;2024-01-30T11:23:58;11.43;;;6.32;;
26098;SDS011;13860;52.370;6.764;2024-01-30T11:27:08;18.08;;;8.02;;
26098;SDS011;13860;52.370;6.764;2024-01-30T11:30:27;16.50;;;7.97;;
26098;SDS011;13860;52.370;6.764;2024-01-30T11:33:34;14.40;;;6.82;;
26098;SDS011;13860;52.370;6.764;2024-01-30T11:36:42;10.57;;;5.65;;
26098;SDS011;13860;52.370;6.764;2024-01-30T11:39:49;18.60;;;7.30;;
26098;SDS011;13860;52.370;6.764;2024-01-30T11:42:58;14.20;;;6.25;;
26098;SDS011;13860;52.370;6.764;2024-01-30T11:46:08;15.73;;;6.35;;
26098;SDS011;13860;52.370;6.764;2024-01-30T11:49:16;12.52;;;6.07;;
26098;SDS011;13860;52.370;6.764;2024-01-30T11:52:22;14.07;;;6.07;;
26098;SDS011;13860;52.370;6.764;2024-01-30T11:55:30;15.63;;;6.65;;
26098;SDS011;13860;52.370;6.764;2024-01-30T11:58:37;14.10;;;6.10;;
26098;SDS011;13860;52.370;6.764;2024-01-30T12:01:54;14.70;;;5.95;;
26098;SDS011;13860;52.370;6.764;2024-01-30T12:05:02;15.73;;;5.85;;
26098;SDS011;13860;52.370;6.764;2024-01-30T12:08:14;14.70;;;5.47;;
26098;SDS011;13860;52.370;6.764;2024-01-30T12:11:20;12.27;;;5.65;;
26098;SDS011;13860;52.370;6.764;2024-01-30T12:14:28;11.93;;;5.82;;
26098;SDS011;13860;52.370;6.764;2024-01-30T12:17:36;11.70;;;5.70;;
26098;SDS011;13860;52.370;6.764;2024-01-30T12:20:44;13.68;;;6.45;;
26098;SDS011;13860;52.370;6.764;2024-01-30T12:23:51;13.27;;;6.60;;
26098;SDS011;13860;52.370;6.764;2024-01-30T12:26:59;16.00;;;6.40;;
26098;SDS011;13860;52.370;6.764;2024-01-30T12:30:05;10.95;;;5.93;;
26098;SDS011;13860;52.370;6.764;2024-01-30T12:33:18;18.08;;;6.70;;
26098;SDS011;13860;52.370;6.764;2024-01-30T12:36:24;13.73;;;6.75;;
26098;SDS011;13860;52.370;6.764;2024-01-30T12:39:32;13.38;;;6.18;;
26098;SDS011;13860;52.370;6.764;2024-01-30T12:42:37;11.43;;;6.28;;
26098;SDS011;13860;52.370;6.764;2024-01-30T12:45:46;14.32;;;6.60;;
26098;SDS011;13860;52.370;6.764;2024-01-30T12:48:55;10.75;;;6.32;;
26098;SDS011;13860;52.370;6.764;2024-01-30T12:52:02;15.50;;;6.93;;
26098;SDS011;13860;52.370;6.764;2024-01-30T12:55:09;20.50;;;6.63;;
26098;SDS011;13860;52.370;6.764;2024-01-30T12:58:16;15.93;;;6.43;;
26098;SDS011;13860;52.370;6.764;2024-01-30T13:01:22;17.88;;;6.70;;
26098;SDS011;13860;52.370;6.764;2024-01-30T13:04:33;13.55;;;6.97;;
26098;SDS011;13860;52.370;6.764;2024-01-30T13:07:38;15.43;;;6.97;;
26098;SDS011;13860;52.370;6.764;2024-01-30T13:10:46;13.43;;;6.45;;
26098;SDS011;13860;52.370;6.764;2024-01-30T13:13:52;16.30;;;6.93;;
26098;SDS011;13860;52.370;6.764;2024-01-30T13:16:59;16.48;;;7.15;;
26098;SDS011;13860;52.370;6.764;2024-01-30T13:20:08;14.82;;;6.82;;
26098;SDS011;13860;52.370;6.764;2024-01-30T13:23:18;12.93;;;6.73;;
26098;SDS011;13860;52.370;6.764;2024-01-30T13:26:24;21.70;;;6.75;;
26098;SDS011;13860;52.370;6.764;2024-01-30T13:29:31;9.73;;;5.15;;
26098;SDS011;13860;52.370;6.764;2024-01-30T13:32:37;9.82;;;4.63;;
26098;SDS011;13860;52.370;6.764;2024-01-30T13:35:48;15.63;;;5.10;;
26098;SDS011;13860;52.370;6.764;2024-01-30T13:38:54;16.30;;;4.90;;
26098;SDS011;13860;52.370;6.764;2024-01-30T13:42:02;9.65;;;4.40;;
26098;SDS011;13860;52.370;6.764;2024-01-30T13:45:08;18.35;;;4.40;;
26098;SDS011;13860;52.370;6.764;2024-01-30T13:48:16;9.93;;;4.32;;
26098;SDS011;13860;52.370;6.764;2024-01-30T13:51:24;8.38;;;4.05;;
26098;SDS011;13860;52.370;6.764;2024-01-30T13:54:32;14.25;;;3.95;;
26098;SDS011;13860;52.370;6.764;2024-01-30T13:57:37;7.32;;;2.88;;
26098;SDS011;13860;52.370;6.764;2024-01-30T14:00:45;9.07;;;2.58;;
26098;SDS011;13860;52.370;6.764;2024-01-30T14:03:51;7.95;;;2.58;;
26098;SDS011;13860;52.370;6.764;2024-01-30T14:07:01;7.97;;;2.45;;
26098;SDS011;13860;52.370;6.764;2024-01-30T14:10:09;5.85;;;2.00;;
26098;SDS011;13860;52.370;6.764;2024-01-30T14:13:18;6.38;;;2.08;;
26098;SDS011;13860;52.370;6.764;2024-01-30T14:16:24;11.25;;;2.10;;
26098;SDS011;13860;52.370;6.764;2024-01-30T14:19:33;5.55;;;1.85;;
26098;SDS011;13860;52.370;6.764;2024-01-30T14:22:41;2.42;;;1.65;;
26098;SDS011;13860;52.370;6.764;2024-01-30T14:25:49;7.47;;;2.03;;
26098;SDS011;13860;52.370;6.764;2024-01-30T14:28:56;4.78;;;1.92;;
26098;SDS011;13860;52.370;6.764;2024-01-30T14:32:04;2.97;;;2.00;;
26098;SDS011;13860;52.370;6.764;2024-01-30T14:35:10;4.35;;;1.60;;
26098;SDS011;13860;52.370;6.764;2024-01-30T14:38:20;2.55;;;1.52;;
26098;SDS011;13860;52.370;6.764;2024-01-30T14:41:27;7.82;;;2.83;;
26098;SDS011;13860;52.370;6.764;2024-01-30T14:44:34;5.15;;;2.50;;
26098;SDS011;13860;52.370;6.764;2024-01-30T14:47:40;11.10;;;4.70;;
26098;SDS011;13860;52.370;6.764;2024-01-30T14:50:47;12.98;;;2.90;;
26098;SDS011;13860;52.370;6.764;2024-01-30T14:53:55;6.55;;;2.58;;
26098;SDS011;13860;52.370;6.764;2024-01-30T14:57:03;7.88;;;2.55;;
26098;SDS011;13860;52.370;6.764;2024-01-30T15:00:11;5.38;;;2.50;;
26098;SDS011;13860;52.370;6.764;2024-01-30T15:03:20;7.28;;;2.50;;
26098;SDS011;13860;52.370;6.764;2024-01-30T15:06:29;6.57;;;2.30;;
26098;SDS011;13860;52.370;6.764;2024-01-30T15:09:39;6.82;;;3.53;;
26098;SDS011;13860;52.370;6.764;2024-01-30T15:12:45;5.20;;;2.22;;
26098;SDS011;13860;52.370;6.764;2024-01-30T15:15:53;8.30;;;2.50;;
26098;SDS011;13860;52.370;6.764;2024-01-30T15:18:59;8.05;;;2.67;;
26098;SDS011;13860;52.370;6.764;2024-01-30T15:22:07;7.03;;;3.05;;
26098;SDS011;13860;52.370;6.764;2024-01-30T15:25:15;9.45;;;3.17;;
26098;SDS011;13860;52.370;6.764;2024-01-30T15:28:33;6.32;;;2.20;;
26098;SDS011;13860;52.370;6.764;2024-01-30T15:31:40;6.63;;;2.03;;
26098;SDS011;13860;52.370;6.764;2024-01-30T15:34:48;8.23;;;2.33;;
26098;SDS011;13860;52.370;6.764;2024-01-30T15:37:54;7.30;;;2.15;;
26098;SDS011;13860;52.370;6.764;2024-01-30T15:41:04;4.80;;;2.47;;
26098;SDS011;13860;52.370;6.764;2024-01-30T15:44:09;4.20;;;2.00;;
26098;SDS011;13860;52.370;6.764;2024-01-30T15:47:17;3.50;;;2.25;;
26098;SDS011;13860;52.370;6.764;2024-01-30T15:50:23;5.85;;;1.73;;
26098;SDS011;13860;52.370;6.764;2024-01-30T15:53:31;4.80;;;2.08;;
26098;SDS011;13860;52.370;6.764;2024-01-30T15:56:39;4.18;;;2.05;;
26098;SDS011;13860;52.370;6.764;2024-01-30T15:59:47;3.95;;;1.60;;
26098;SDS011;13860;52.370;6.764;2024-01-30T16:02:52;3.97;;;1.60;;
26098;SDS011;13860;52.370;6.764;2024-01-30T16:06:02;7.80;;;1.70;;
26098;SDS011;13860;52.370;6.764;2024-01-30T16:09:07;6.82;;;1.48;;
26098;SDS011;13860;52.370;6.764;2024-01-30T16:12:18;4.13;;;1.42;;
26098;SDS011;13860;52.370;6.764;2024-01-30T16:15:23;12.55;;;1.77;;
26098;SDS011;13860;52.370;6.764;2024-01-30T16:18:31;2.15;;;1.60;;
26098;SDS011;13860;52.370;6.764;2024-01-30T16:21:37;11.68;;;2.05;;
26098;SDS011;13860;52.370;6.764;2024-01-30T16:24:47;5.40;;;2.10;;
26098;SDS011;13860;52.370;6.764;2024-01-30T16:27:55;4.20;;;1.50;;
26098;SDS011;13860;52.370;6.764;2024-01-30T16:31:03;2.63;;;1.63;;
26098;SDS011;13860;52.370;6.764;2024-01-30T16:34:08;5.18;;;2.22;;
26098;SDS011;13860;52.370;6.764;2024-01-30T16:37:16;6.22;;;2.40;;
26098;SDS011;13860;52.370;6.764;2024-01-30T16:40:22;4.05;;;2.65;;
26098;SDS011;13860;52.370;6.764;2024-01-30T16:43:32;6.88;;;2.63;;
26098;SDS011;13860;52.370;6.764;2024-01-30T16:46:38;5.95;;;2.47;;
26098;SDS011;13860;52.370;6.764;2024-01-30T16:49:45;4.00;;;2.13;;
26098;SDS011;13860;52.370;6.764;2024-01-30T16:52:51;8.18;;;3.03;;
26098;SDS011;13860;52.370;6.764;2024-01-30T16:55:59;12.00;;;3.95;;
26098;SDS011;13860;52.370;6.764;2024-01-30T16:59:27;6.90;;;3.72;;
26098;SDS011;13860;52.370;6.764;2024-01-30T17:02:34;5.10;;;3.00;;
26098;SDS011;13860;52.370;6.764;2024-01-30T17:05:40;7.45;;;2.70;;
26098;SDS011;13860;52.370;6.764;2024-01-30T17:08:48;4.40;;;2.70;;
26098;SDS011;13860;52.370;6.764;2024-01-30T17:11:54;12.23;;;3.38;;
26098;SDS011;13860;52.370;6.764;2024-01-30T17:15:07;6.40;;;2.65;;
26098;SDS011;13860;52.370;6.764;2024-01-30T17:18:22;4.70;;;3.22;;
26098;SDS011;13860;52.370;6.764;2024-01-30T17:21:31;6.97;;;3.47;;
26098;SDS011;13860;52.370;6.764;2024-01-30T17:24:50;5.43;;;3.83;;
26098;SDS011;13860;52.370;6.764;2024-01-30T17:28:03;9.48;;;4.22;;
26098;SDS011;13860;52.370;6.764;2024-01-30T17:31:16;9.90;;;4.15;;
26098;SDS011;13860;52.370;6.764;2024-01-30T17:34:22;13.68;;;3.88;;
26098;SDS011;13860;52.370;6.764;2024-01-30T17:37:30;9.30;;;4.50;;
26098;SDS011;13860;52.370;6.764;2024-01-30T17:40:37;8.05;;;4.28;;
26098;SDS011;13860;52.370;6.764;2024-01-30T17:43:44;7.70;;;4.22;;
26098;SDS011;13860;52.370;6.764;2024-01-30T17:46:52;6.85;;;4.38;;
26098;SDS011;13860;52.370;6.764;2024-01-30T17:50:08;7.78;;;4.80;;
26098;SDS011;13860;52.370;6.764;2024-01-30T17:53:14;9.15;;;4.95;;
26098;SDS011;13860;52.370;6.764;2024-01-30T17:56:22;6.60;;;4.82;;
26098;SDS011;13860;52.370;6.764;2024-01-30T17:59:27;9.70;;;5.07;;
26098;SDS011;13860;52.370;6.764;2024-01-30T18:02:38;10.50;;;4.90;;
26098;SDS011;13860;52.370;6.764;2024-01-30T18:05:43;9.23;;;5.22;;
26098;SDS011;13860;52.370;6.764;2024-01-30T18:08:51;8.57;;;5.30;;
26098;SDS011;13860;52.370;6.764;2024-01-30T18:11:57;7.15;;;5.40;;
26098;SDS011;13860;52.370;6.764;2024-01-30T18:15:05;10.13;;;5.57;;
26098;SDS011;13860;52.370;6.764;2024-01-30T18:18:13;9.85;;;6.13;;
26098;SDS011;13860;52.370;6.764;2024-01-30T18:21:22;7.93;;;5.90;;
26098;SDS011;13860;52.370;6.764;2024-01-30T18:24:27;10.65;;;6.63;;
26098;SDS011;13860;52.370;6.764;2024-01-30T18:27:35;10.20;;;6.78;;
26098;SDS011;13860;52.370;6.764;2024-01-30T18:30:41;8.05;;;5.65;;
26098;SDS011;13860;52.370;6.764;2024-01-30T18:33:52;13.02;;;6.50;;
26098;SDS011;13860;52.370;6.764;2024-01-30T18:36:57;9.30;;;5.57;;